Terminal Aerodrome Forecast
Issued by NWS Pittsburgh, PA

Current Version | Previous Version | Graphics & Text | Print | Product List | Glossary On
Versions: 1 2 3 4 5 6 7 8 9 10 11 12 13 14 15 16 17 18 19 20 21 22 23 24 25 26 27 28 29 30
000
FTUS41 KPBZ 200903 AAB
TAFPIT
TAF AMD
KPIT 200903Z 2009/2112 15012KT P6SM -SHRA OVC015 WS020/19040KT
     FM201000 16010KT P6SM BKN025
     FM201500 18012G20KT P6SM BKN035
     FM201700 20015G28KT P6SM VCTS BKN035CB
     FM210000 26010G16KT P6SM OVC025=

USA.gov is the U.S. government's official web portal to all federal, state and local government web resources and services.